Terminal Aerodrome Forecast
Issued by NWS Quad Cities IA IL

Home | Current Version | Previous Version | Text Only | Print | Product List | Glossary Off
Versions: 1 2 3 4 5 6 7 8 9 10 11 12 13 14 15 16 17 18 19 20 21 22

000
FTUS43 KDVN 160900 AAB
TAFDBQ
TAF AMD
KDBQ 160921Z 1609/1706 34005KT 1/4SM FG VV002
     FM161000 33013KT 2SM -RADZ BR OVC004
     FM161100 33015G23KT 6SM -RA BR OVC008
     FM161500 33018G26KT P6SM -SN OVC012
     FM161900 32018G28KT P6SM OVC020
     FM170000 31014KT P6SM BKN025=

USA.gov is the U.S. government's official web portal to all federal, state and local government web resources and services.